sensor_id;sensor_type;location;lat;lon;timestamp;temperature;humidity
9965;DHT22;5023;53.554;9.964;2023-07-09T00:03:22;21.80;99.90
9965;DHT22;5023;53.554;9.964;2023-07-09T00:08:26;21.70;99.90
9965;DHT22;5023;53.554;9.964;2023-07-09T00:13:30;21.70;99.90
9965;DHT22;5023;53.554;9.964;2023-07-09T00:18:32;21.60;99.90
9965;DHT22;5023;53.554;9.964;2023-07-09T00:23:35;21.60;99.90
9965;DHT22;5023;53.554;9.964;2023-07-09T00:28:40;21.60;99.90
9965;DHT22;5023;53.554;9.964;2023-07-09T00:33:42;21.50;99.90
9965;DHT22;5023;53.554;9.964;2023-07-09T00:38:45;21.40;99.90
9965;DHT22;5023;53.554;9.964;2023-07-09T00:43:51;21.40;99.90
9965;DHT22;5023;53.554;9.964;2023-07-09T00:48:58;21.40;99.90
9965;DHT22;5023;53.554;9.964;2023-07-09T00:54:05;21.30;99.90
9965;DHT22;5023;53.554;9.964;2023-07-09T00:59:15;21.20;99.90
9965;DHT22;5023;53.554;9.964;2023-07-09T01:04:20;21.10;99.90
9965;DHT22;5023;53.554;9.964;2023-07-09T01:09:24;21.10;99.90
9965;DHT22;5023;53.554;9.964;2023-07-09T01:14:27;21.00;99.90
9965;DHT22;5023;53.554;9.964;2023-07-09T01:19:39;21.00;99.90
9965;DHT22;5023;53.554;9.964;2023-07-09T01:24:57;20.90;99.90
9965;DHT22;5023;53.554;9.964;2023-07-09T01:30:04;20.80;99.90
9965;DHT22;5023;53.554;9.964;2023-07-09T01:35:07;20.80;99.90
9965;DHT22;5023;53.554;9.964;2023-07-09T01:40:16;20.80;99.90
9965;DHT22;5023;53.554;9.964;2023-07-09T01:45:18;20.80;99.90
9965;DHT22;5023;53.554;9.964;2023-07-09T01:50:21;20.70;99.90
9965;DHT22;5023;53.554;9.964;2023-07-09T01:55:26;20.60;99.90
9965;DHT22;5023;53.554;9.964;2023-07-09T02:00:29;20.50;99.90
9965;DHT22;5023;53.554;9.964;2023-07-09T02:05:32;20.50;99.90
9965;DHT22;5023;53.554;9.964;2023-07-09T02:10:36;20.40;99.90
9965;DHT22;5023;53.554;9.964;2023-07-09T02:15:38;20.40;99.90
9965;DHT22;5023;53.554;9.964;2023-07-09T02:20:45;20.40;99.90
9965;DHT22;5023;53.554;9.964;2023-07-09T02:25:49;20.40;99.90
9965;DHT22;5023;53.554;9.964;2023-07-09T02:30:51;20.40;99.90
9965;DHT22;5023;53.554;9.964;2023-07-09T02:35:53;20.20;99.90
9965;DHT22;5023;53.554;9.964;2023-07-09T02:40:56;20.20;99.90
9965;DHT22;5023;53.554;9.964;2023-07-09T02:45:58;20.20;99.90
9965;DHT22;5023;53.554;9.964;2023-07-09T02:51:00;20.20;99.90
9965;DHT22;5023;53.554;9.964;2023-07-09T02:56:03;20.10;99.90
9965;DHT22;5023;53.554;9.964;2023-07-09T03:01:05;20.10;99.90
9965;DHT22;5023;53.554;9.964;2023-07-09T03:06:08;20.10;99.90
9965;DHT22;5023;53.554;9.964;2023-07-09T03:11:12;20.00;99.90
9965;DHT22;5023;53.554;9.964;2023-07-09T03:16:15;19.90;99.90
9965;DHT22;5023;53.554;9.964;2023-07-09T03:21:19;19.80;99.90
9965;DHT22;5023;53.554;9.964;2023-07-09T03:26:22;19.80;99.90
9965;DHT22;5023;53.554;9.964;2023-07-09T03:31:26;19.80;99.90
9965;DHT22;5023;53.554;9.964;2023-07-09T03:36:28;19.70;99.90
9965;DHT22;5023;53.554;9.964;2023-07-09T03:41:31;19.70;99.90
9965;DHT22;5023;53.554;9.964;2023-07-09T03:46:33;19.60;99.90
9965;DHT22;5023;53.554;9.964;2023-07-09T03:51:35;19.70;99.90
9965;DHT22;5023;53.554;9.964;2023-07-09T03:56:38;19.70;99.90
9965;DHT22;5023;53.554;9.964;2023-07-09T04:01:40;19.60;99.90
9965;DHT22;5023;53.554;9.964;2023-07-09T04:06:44;19.70;99.90
9965;DHT22;5023;53.554;9.964;2023-07-09T04:11:49;19.60;99.90
9965;DHT22;5023;53.554;9.964;2023-07-09T04:16:51;19.60;99.90
9965;DHT22;5023;53.554;9.964;2023-07-09T04:21:53;19.70;99.90
9965;DHT22;5023;53.554;9.964;2023-07-09T04:26:56;19.60;99.90
9965;DHT22;5023;53.554;9.964;2023-07-09T04:31:58;19.70;99.90
9965;DHT22;5023;53.554;9.964;2023-07-09T04:37:00;19.70;99.90
9965;DHT22;5023;53.554;9.964;2023-07-09T04:42:05;19.70;99.90
9965;DHT22;5023;53.554;9.964;2023-07-09T04:47:07;19.70;99.90
9965;DHT22;5023;53.554;9.964;2023-07-09T04:52:09;19.70;99.90
9965;DHT22;5023;53.554;9.964;2023-07-09T04:57:13;19.70;99.90
9965;DHT22;5023;53.554;9.964;2023-07-09T05:02:15;19.80;99.90
9965;DHT22;5023;53.554;9.964;2023-07-09T05:07:18;19.90;99.90
9965;DHT22;5023;53.554;9.964;2023-07-09T05:12:21;19.90;99.90
9965;DHT22;5023;53.554;9.964;2023-07-09T05:17:23;19.90;99.90
9965;DHT22;5023;53.554;9.964;2023-07-09T05:22:25;20.00;99.90
9965;DHT22;5023;53.554;9.964;2023-07-09T05:27:28;20.10;99.90
9965;DHT22;5023;53.554;9.964;2023-07-09T05:32:30;20.10;99.90
9965;DHT22;5023;53.554;9.964;2023-07-09T05:37:32;20.20;99.90
9965;DHT22;5023;53.554;9.964;2023-07-09T05:42:35;20.40;99.90
9965;DHT22;5023;53.554;9.964;2023-07-09T05:47:37;20.40;99.90
9965;DHT22;5023;53.554;9.964;2023-07-09T05:52:39;20.50;99.90
9965;DHT22;5023;53.554;9.964;2023-07-09T05:57:42;20.60;99.90
9965;DHT22;5023;53.554;9.964;2023-07-09T06:02:44;20.70;99.90
9965;DHT22;5023;53.554;9.964;2023-07-09T06:07:46;20.80;99.90
9965;DHT22;5023;53.554;9.964;2023-07-09T06:12:50;20.80;99.90
9965;DHT22;5023;53.554;9.964;2023-07-09T06:17:52;21.00;99.90
9965;DHT22;5023;53.554;9.964;2023-07-09T06:22:54;21.10;99.90
9965;DHT22;5023;53.554;9.964;2023-07-09T06:27:57;21.20;99.90
9965;DHT22;5023;53.554;9.964;2023-07-09T06:32:59;21.40;99.90
9965;DHT22;5023;53.554;9.964;2023-07-09T06:38:01;21.50;99.90
9965;DHT22;5023;53.554;9.964;2023-07-09T06:43:04;21.70;99.90
9965;DHT22;5023;53.554;9.964;2023-07-09T06:48:06;21.80;99.90
9965;DHT22;5023;53.554;9.964;2023-07-09T06:53:08;21.90;99.90
9965;DHT22;5023;53.554;9.964;2023-07-09T06:58:12;22.10;99.90
9965;DHT22;5023;53.554;9.964;2023-07-09T07:03:14;22.20;99.90
9965;DHT22;5023;53.554;9.964;2023-07-09T07:08:18;22.20;99.90
9965;DHT22;5023;53.554;9.964;2023-07-09T07:13:22;22.40;99.90
9965;DHT22;5023;53.554;9.964;2023-07-09T07:18:24;22.40;99.90
9965;DHT22;5023;53.554;9.964;2023-07-09T07:23:26;22.50;99.90
9965;DHT22;5023;53.554;9.964;2023-07-09T07:28:30;22.70;99.90
9965;DHT22;5023;53.554;9.964;2023-07-09T07:33:32;22.80;99.90
9965;DHT22;5023;53.554;9.964;2023-07-09T07:38:34;22.90;99.90
9965;DHT22;5023;53.554;9.964;2023-07-09T07:43:37;23.00;99.90
9965;DHT22;5023;53.554;9.964;2023-07-09T07:48:39;23.10;99.90
9965;DHT22;5023;53.554;9.964;2023-07-09T07:53:41;23.30;99.90
9965;DHT22;5023;53.554;9.964;2023-07-09T07:58:45;23.40;99.90
9965;DHT22;5023;53.554;9.964;2023-07-09T08:03:47;23.60;99.90
9965;DHT22;5023;53.554;9.964;2023-07-09T08:08:49;23.90;99.90
9965;DHT22;5023;53.554;9.964;2023-07-09T08:13:52;24.00;99.90
9965;DHT22;5023;53.554;9.964;2023-07-09T08:18:54;24.20;99.90
9965;DHT22;5023;53.554;9.964;2023-07-09T08:23:56;24.40;99.90
9965;DHT22;5023;53.554;9.964;2023-07-09T08:28:59;24.60;99.90
9965;DHT22;5023;53.554;9.964;2023-07-09T08:34:01;24.70;99.90
9965;DHT22;5023;53.554;9.964;2023-07-09T08:39:03;24.90;99.90
9965;DHT22;5023;53.554;9.964;2023-07-09T08:44:36;25.20;99.90
9965;DHT22;5023;53.554;9.964;2023-07-09T08:49:43;25.40;99.90
9965;DHT22;5023;53.554;9.964;2023-07-09T08:54:48;25.50;99.90
9965;DHT22;5023;53.554;9.964;2023-07-09T09:00:10;25.70;99.90
9965;DHT22;5023;53.554;9.964;2023-07-09T09:05:18;25.80;99.80
9965;DHT22;5023;53.554;9.964;2023-07-09T09:10:29;26.00;99.50
9965;DHT22;5023;53.554;9.964;2023-07-09T09:15:37;26.10;99.10
9965;DHT22;5023;53.554;9.964;2023-07-09T09:20:52;26.30;98.50
9965;DHT22;5023;53.554;9.964;2023-07-09T09:25:56;26.40;98.30
9965;DHT22;5023;53.554;9.964;2023-07-09T09:31:02;26.60;98.50
9965;DHT22;5023;53.554;9.964;2023-07-09T09:36:04;26.70;98.20
9965;DHT22;5023;53.554;9.964;2023-07-09T09:41:12;26.90;97.90
9965;DHT22;5023;53.554;9.964;2023-07-09T09:46:19;27.00;97.30
9965;DHT22;5023;53.554;9.964;2023-07-09T09:51:23;27.10;96.40
9965;DHT22;5023;53.554;9.964;2023-07-09T09:56:28;27.30;96.20
9965;DHT22;5023;53.554;9.964;2023-07-09T10:01:34;27.50;96.20
9965;DHT22;5023;53.554;9.964;2023-07-09T10:06:42;27.60;96.20
9965;DHT22;5023;53.554;9.964;2023-07-09T10:11:47;27.80;95.90
9965;DHT22;5023;53.554;9.964;2023-07-09T10:16:57;27.90;95.90
9965;DHT22;5023;53.554;9.964;2023-07-09T10:22:05;28.10;94.50
9965;DHT22;5023;53.554;9.964;2023-07-09T10:27:11;28.20;93.70
9965;DHT22;5023;53.554;9.964;2023-07-09T10:32:26;28.40;92.80
9965;DHT22;5023;53.554;9.964;2023-07-09T10:37:47;28.50;92.40
9965;DHT22;5023;53.554;9.964;2023-07-09T10:42:58;28.60;92.00
9965;DHT22;5023;53.554;9.964;2023-07-09T10:48:09;28.80;91.80
9965;DHT22;5023;53.554;9.964;2023-07-09T10:53:26;29.00;91.70
9965;DHT22;5023;53.554;9.964;2023-07-09T10:58:36;29.20;90.90
9965;DHT22;5023;53.554;9.964;2023-07-09T11:03:43;29.30;90.80
9965;DHT22;5023;53.554;9.964;2023-07-09T11:08:49;29.50;89.60
9965;DHT22;5023;53.554;9.964;2023-07-09T11:13:55;29.70;85.80
9965;DHT22;5023;53.554;9.964;2023-07-09T11:19:04;29.80;85.40
9965;DHT22;5023;53.554;9.964;2023-07-09T11:24:27;30.00;82.60
9965;DHT22;5023;53.554;9.964;2023-07-09T11:29:31;30.30;80.80
9965;DHT22;5023;53.554;9.964;2023-07-09T11:34:45;30.60;78.60
9965;DHT22;5023;53.554;9.964;2023-07-09T11:39:49;31.00;78.00
9965;DHT22;5023;53.554;9.964;2023-07-09T11:44:54;31.20;77.20
9965;DHT22;5023;53.554;9.964;2023-07-09T11:50:01;31.30;76.10
9965;DHT22;5023;53.554;9.964;2023-07-09T11:55:20;31.60;75.00
9965;DHT22;5023;53.554;9.964;2023-07-09T12:00:40;32.00;73.80
9965;DHT22;5023;53.554;9.964;2023-07-09T12:05:52;32.30;72.20
9965;DHT22;5023;53.554;9.964;2023-07-09T12:10:56;32.80;69.50
9965;DHT22;5023;53.554;9.964;2023-07-09T12:15:58;33.00;66.50
9965;DHT22;5023;53.554;9.964;2023-07-09T12:21:02;33.50;63.60
9965;DHT22;5023;53.554;9.964;2023-07-09T12:26:04;33.60;62.70
9965;DHT22;5023;53.554;9.964;2023-07-09T12:31:13;33.60;60.00
9965;DHT22;5023;53.554;9.964;2023-07-09T12:36:18;33.30;59.40
9965;DHT22;5023;53.554;9.964;2023-07-09T12:41:29;33.40;58.40
9965;DHT22;5023;53.554;9.964;2023-07-09T12:46:37;33.50;58.30
9965;DHT22;5023;53.554;9.964;2023-07-09T12:51:43;33.40;57.40
9965;DHT22;5023;53.554;9.964;2023-07-09T12:56:51;33.50;57.40
9965;DHT22;5023;53.554;9.964;2023-07-09T13:01:59;34.00;57.60
9965;DHT22;5023;53.554;9.964;2023-07-09T13:07:18;34.00;57.20
9965;DHT22;5023;53.554;9.964;2023-07-09T13:12:30;34.30;57.40
9965;DHT22;5023;53.554;9.964;2023-07-09T13:17:33;34.70;56.60
9965;DHT22;5023;53.554;9.964;2023-07-09T13:22:36;35.20;55.40
9965;DHT22;5023;53.554;9.964;2023-07-09T13:27:38;35.50;54.70
9965;DHT22;5023;53.554;9.964;2023-07-09T13:32:40;35.50;54.90
9965;DHT22;5023;53.554;9.964;2023-07-09T13:37:44;35.60;53.30
9965;DHT22;5023;53.554;9.964;2023-07-09T13:42:47;35.50;52.30
9965;DHT22;5023;53.554;9.964;2023-07-09T13:47:56;35.50;52.30
9965;DHT22;5023;53.554;9.964;2023-07-09T13:53:00;35.50;51.70
9965;DHT22;5023;53.554;9.964;2023-07-09T13:58:04;35.80;51.40
9965;DHT22;5023;53.554;9.964;2023-07-09T14:03:14;35.70;51.70
9965;DHT22;5023;53.554;9.964;2023-07-09T14:08:31;35.80;50.60
9965;DHT22;5023;53.554;9.964;2023-07-09T14:13:33;35.70;50.80
9965;DHT22;5023;53.554;9.964;2023-07-09T14:18:35;35.20;50.30
9965;DHT22;5023;53.554;9.964;2023-07-09T14:23:39;35.50;50.60
9965;DHT22;5023;53.554;9.964;2023-07-09T14:28:41;35.80;50.60
9965;DHT22;5023;53.554;9.964;2023-07-09T14:33:44;35.40;49.10
9965;DHT22;5023;53.554;9.964;2023-07-09T14:38:50;35.60;49.40
9965;DHT22;5023;53.554;9.964;2023-07-09T14:43:57;35.50;49.90
9965;DHT22;5023;53.554;9.964;2023-07-09T14:48:59;35.30;49.20
9965;DHT22;5023;53.554;9.964;2023-07-09T14:54:04;35.50;49.20
9965;DHT22;5023;53.554;9.964;2023-07-09T14:59:07;35.50;47.90
9965;DHT22;5023;53.554;9.964;2023-07-09T15:04:27;35.50;48.50
9965;DHT22;5023;53.554;9.964;2023-07-09T15:09:36;35.60;48.60
9965;DHT22;5023;53.554;9.964;2023-07-09T15:14:38;36.00;47.70
9965;DHT22;5023;53.554;9.964;2023-07-09T15:19:40;35.40;48.30
9965;DHT22;5023;53.554;9.964;2023-07-09T15:24:44;35.00;47.00
9965;DHT22;5023;53.554;9.964;2023-07-09T15:29:46;34.80;48.40
9965;DHT22;5023;53.554;9.964;2023-07-09T15:34:48;34.70;47.70
9965;DHT22;5023;53.554;9.964;2023-07-09T15:39:51;34.70;47.60
9965;DHT22;5023;53.554;9.964;2023-07-09T15:44:53;34.50;48.80
9965;DHT22;5023;53.554;9.964;2023-07-09T15:49:55;34.30;48.30
9965;DHT22;5023;53.554;9.964;2023-07-09T15:54:58;34.30;47.30
9965;DHT22;5023;53.554;9.964;2023-07-09T16:00:01;34.20;47.70
9965;DHT22;5023;53.554;9.964;2023-07-09T16:05:15;33.70;48.60
9965;DHT22;5023;53.554;9.964;2023-07-09T16:10:21;33.50;49.40
9965;DHT22;5023;53.554;9.964;2023-07-09T16:15:25;33.40;49.80
9965;DHT22;5023;53.554;9.964;2023-07-09T16:20:28;33.30;50.00
9965;DHT22;5023;53.554;9.964;2023-07-09T16:25:33;33.10;49.90
9965;DHT22;5023;53.554;9.964;2023-07-09T16:30:35;32.80;50.20
9965;DHT22;5023;53.554;9.964;2023-07-09T16:35:37;32.80;51.00
9965;DHT22;5023;53.554;9.964;2023-07-09T16:40:42;32.70;51.10
9965;DHT22;5023;53.554;9.964;2023-07-09T16:45:45;32.50;51.50
9965;DHT22;5023;53.554;9.964;2023-07-09T16:50:47;32.40;51.70
9965;DHT22;5023;53.554;9.964;2023-07-09T16:55:51;32.30;52.00
9965;DHT22;5023;53.554;9.964;2023-07-09T17:00:53;32.30;52.40
9965;DHT22;5023;53.554;9.964;2023-07-09T17:05:55;32.10;53.40
9965;DHT22;5023;53.554;9.964;2023-07-09T17:11:01;31.80;54.00
9965;DHT22;5023;53.554;9.964;2023-07-09T17:16:04;31.70;55.00
9965;DHT22;5023;53.554;9.964;2023-07-09T17:21:06;31.50;55.70
9965;DHT22;5023;53.554;9.964;2023-07-09T17:26:10;31.40;56.20
9965;DHT22;5023;53.554;9.964;2023-07-09T17:31:12;31.30;56.80
9965;DHT22;5023;53.554;9.964;2023-07-09T17:36:14;31.20;57.60
9965;DHT22;5023;53.554;9.964;2023-07-09T17:41:17;31.10;58.30
9965;DHT22;5023;53.554;9.964;2023-07-09T17:46:19;31.00;58.50
9965;DHT22;5023;53.554;9.964;2023-07-09T17:51:21;31.00;59.10
9965;DHT22;5023;53.554;9.964;2023-07-09T17:56:25;30.90;59.50
9965;DHT22;5023;53.554;9.964;2023-07-09T18:01:30;30.80;59.80
9965;DHT22;5023;53.554;9.964;2023-07-09T18:06:32;30.70;60.10
9965;DHT22;5023;53.554;9.964;2023-07-09T18:11:36;30.50;60.50
9965;DHT22;5023;53.554;9.964;2023-07-09T18:16:39;30.30;60.80
9965;DHT22;5023;53.554;9.964;2023-07-09T18:21:41;30.20;61.20
9965;DHT22;5023;53.554;9.964;2023-07-09T18:26:45;30.10;61.40
9965;DHT22;5023;53.554;9.964;2023-07-09T18:31:47;30.00;61.50
9965;DHT22;5023;53.554;9.964;2023-07-09T18:36:50;29.90;62.10
9965;DHT22;5023;53.554;9.964;2023-07-09T18:41:53;29.70;62.50
9965;DHT22;5023;53.554;9.964;2023-07-09T18:46:55;29.70;63.00
9965;DHT22;5023;53.554;9.964;2023-07-09T18:51:57;29.60;64.00
9965;DHT22;5023;53.554;9.964;2023-07-09T18:57:01;29.50;65.40
9965;DHT22;5023;53.554;9.964;2023-07-09T19:02:14;29.30;67.70
9965;DHT22;5023;53.554;9.964;2023-07-09T19:07:19;29.10;70.80
9965;DHT22;5023;53.554;9.964;2023-07-09T19:12:22;28.90;73.60
9965;DHT22;5023;53.554;9.964;2023-07-09T19:17:28;28.70;76.90
9965;DHT22;5023;53.554;9.964;2023-07-09T19:22:30;28.60;80.40
9965;DHT22;5023;53.554;9.964;2023-07-09T19:27:33;28.50;83.50
9965;DHT22;5023;53.554;9.964;2023-07-09T19:32:36;28.30;85.40
9965;DHT22;5023;53.554;9.964;2023-07-09T19:37:38;28.20;88.20
9965;DHT22;5023;53.554;9.964;2023-07-09T19:42:42;28.20;90.10
9965;DHT22;5023;53.554;9.964;2023-07-09T19:47:45;28.10;90.70
9965;DHT22;5023;53.554;9.964;2023-07-09T19:52:48;28.10;91.20
9965;DHT22;5023;53.554;9.964;2023-07-09T19:57:53;28.00;92.10
9965;DHT22;5023;53.554;9.964;2023-07-09T20:02:56;27.90;90.90
9965;DHT22;5023;53.554;9.964;2023-07-09T20:07:59;27.60;93.40
9965;DHT22;5023;53.554;9.964;2023-07-09T20:13:07;26.90;99.90
9965;DHT22;5023;53.554;9.964;2023-07-09T20:18:14;26.10;99.90
9965;DHT22;5023;53.554;9.964;2023-07-09T20:23:17;25.40;99.90
9965;DHT22;5023;53.554;9.964;2023-07-09T20:28:22;25.00;99.90
9965;DHT22;5023;53.554;9.964;2023-07-09T20:33:25;24.70;99.90
9965;DHT22;5023;53.554;9.964;2023-07-09T20:38:27;24.40;99.90
9965;DHT22;5023;53.554;9.964;2023-07-09T20:43:34;24.20;99.90
9965;DHT22;5023;53.554;9.964;2023-07-09T20:48:39;24.00;99.90
9965;DHT22;5023;53.554;9.964;2023-07-09T20:53:41;23.80;99.90
9965;DHT22;5023;53.554;9.964;2023-07-09T20:58:45;23.60;99.90
9965;DHT22;5023;53.554;9.964;2023-07-09T21:03:47;23.50;99.90
9965;DHT22;5023;53.554;9.964;2023-07-09T21:08:49;23.50;99.90
9965;DHT22;5023;53.554;9.964;2023-07-09T21:13:53;23.50;99.90
9965;DHT22;5023;53.554;9.964;2023-07-09T21:18:55;23.50;99.90
9965;DHT22;5023;53.554;9.964;2023-07-09T21:23:57;23.40;99.90
9965;DHT22;5023;53.554;9.964;2023-07-09T21:29:00;23.10;99.90
9965;DHT22;5023;53.554;9.964;2023-07-09T21:34:02;22.90;99.90
9965;DHT22;5023;53.554;9.964;2023-07-09T21:39:14;22.80;99.90
9965;DHT22;5023;53.554;9.964;2023-07-09T21:44:17;22.60;99.90
9965;DHT22;5023;53.554;9.964;2023-07-09T21:49:27;22.50;99.90
9965;DHT22;5023;53.554;9.964;2023-07-09T21:54:31;22.40;99.90
9965;DHT22;5023;53.554;9.964;2023-07-09T21:59:35;22.00;99.90
9965;DHT22;5023;53.554;9.964;2023-07-09T22:04:37;21.70;99.90
9965;DHT22;5023;53.554;9.964;2023-07-09T22:09:39;21.50;99.90
9965;DHT22;5023;53.554;9.964;2023-07-09T22:14:43;21.50;99.90
9965;DHT22;5023;53.554;9.964;2023-07-09T22:19:45;21.50;99.90
9965;DHT22;5023;53.554;9.964;2023-07-09T22:24:47;21.50;99.90
9965;DHT22;5023;53.554;9.964;2023-07-09T22:29:51;21.50;99.90
9965;DHT22;5023;53.554;9.964;2023-07-09T22:34:54;21.50;99.90
9965;DHT22;5023;53.554;9.964;2023-07-09T22:39:58;21.50;99.90
9965;DHT22;5023;53.554;9.964;2023-07-09T22:45:03;21.40;99.90
9965;DHT22;5023;53.554;9.964;2023-07-09T22:50:12;21.40;99.90
9965;DHT22;5023;53.554;9.964;2023-07-09T22:55:30;21.30;99.90
9965;DHT22;5023;53.554;9.964;2023-07-09T23:00:37;21.20;99.90
9965;DHT22;5023;53.554;9.964;2023-07-09T23:05:40;21.20;99.90
9965;DHT22;5023;53.554;9.964;2023-07-09T23:10:43;21.10;99.90
9965;DHT22;5023;53.554;9.964;2023-07-09T23:15:46;21.00;99.90
9965;DHT22;5023;53.554;9.964;2023-07-09T23:20:49;21.00;99.90
9965;DHT22;5023;53.554;9.964;2023-07-09T23:25:54;20.90;99.90
9965;DHT22;5023;53.554;9.964;2023-07-09T23:30:57;20.80;99.90
9965;DHT22;5023;53.554;9.964;2023-07-09T23:36:01;20.70;99.90
9965;DHT22;5023;53.554;9.964;2023-07-09T23:41:08;20.60;99.90
9965;DHT22;5023;53.554;9.964;2023-07-09T23:46:16;20.60;99.90
9965;DHT22;5023;53.554;9.964;2023-07-09T23:51:18;20.60;99.90
9965;DHT22;5023;53.554;9.964;2023-07-09T23:56:23;20.60;99.90
